createdAt,value
2018-03-04T00:02:02.916Z,57.47
2018-03-04T00:04:30.440Z,57.78
2018-03-04T00:06:57.952Z,57.67
2018-03-04T00:09:25.489Z,57.57
2018-03-04T00:11:52.987Z,58.16
2018-03-04T00:14:20.509Z,58.23
2018-03-04T00:16:48.046Z,57.70
2018-03-04T00:19:15.561Z,58.11
2018-03-04T00:21:43.067Z,58.02
2018-03-04T00:24:10.626Z,58.19
2018-03-04T00:26:38.161Z,58.29
2018-03-04T00:29:05.661Z,58.45
2018-03-04T00:31:33.175Z,58.47
2018-03-04T00:34:00.715Z,58.92
2018-03-04T00:36:28.223Z,58.80
2018-03-04T00:38:55.759Z,58.87
2018-03-04T00:41:23.285Z,58.83
2018-03-04T00:43:50.826Z,59.26
2018-03-04T00:46:18.400Z,59.06
2018-03-04T00:48:45.902Z,59.04
2018-03-04T00:51:13.492Z,59.17
2018-03-04T00:53:41.043Z,59.67
2018-03-04T00:56:08.607Z,59.63
2018-03-04T00:58:36.166Z,60.13
2018-03-04T01:01:03.784Z,60.34
2018-03-04T01:03:31.292Z,60.45
2018-03-04T01:05:58.812Z,60.79
2018-03-04T01:08:26.332Z,61.32
2018-03-04T01:10:53.844Z,61.39
2018-03-04T01:13:21.386Z,61.65
2018-03-04T01:15:48.898Z,61.55
2018-03-04T01:18:16.398Z,61.83
2018-03-04T01:20:43.932Z,62.05
2018-03-04T01:23:11.470Z,62.79
2018-03-04T01:25:38.986Z,62.76
2018-03-04T01:28:06.509Z,63.04
2018-03-04T01:30:34.111Z,63.58
2018-03-04T01:33:01.610Z,64.33
2018-03-04T01:35:29.162Z,64.64
2018-03-04T01:37:56.684Z,65.29
2018-03-04T01:40:24.281Z,66.40
2018-03-04T01:42:51.847Z,66.92
2018-03-04T01:45:19.395Z,67.30
2018-03-04T01:47:47.021Z,68.35
2018-03-04T01:50:14.514Z,68.92
2018-03-04T01:52:42.035Z,69.43
2018-03-04T01:55:09.540Z,69.84
2018-03-04T01:57:37.105Z,70.11
2018-03-04T02:00:04.642Z,70.33
2018-03-04T02:02:32.154Z,70.83
2018-03-04T02:04:59.696Z,70.99
2018-03-04T02:07:27.209Z,70.82
2018-03-04T02:09:54.688Z,71.01
2018-03-04T02:12:22.322Z,71.58
2018-03-04T02:14:49.820Z,71.68
2018-03-04T02:17:17.354Z,71.93
2018-03-04T02:19:44.868Z,72.24
2018-03-04T02:22:12.401Z,72.19
2018-03-04T02:24:39.954Z,72.24
2018-03-04T02:27:07.785Z,72.47
2018-03-04T02:29:35.381Z,72.58
2018-03-04T02:32:02.949Z,72.80
2018-03-04T02:34:30.459Z,72.66
2018-03-04T02:36:57.979Z,73.03
2018-03-04T02:39:25.511Z,72.95
2018-03-04T02:41:53.020Z,73.24
2018-03-04T02:44:20.516Z,73.40
2018-03-04T02:46:48.062Z,73.18
2018-03-04T02:49:15.642Z,73.52
2018-03-04T02:51:43.186Z,73.61
2018-03-04T02:54:10.677Z,73.82
2018-03-04T02:56:38.200Z,74.10
2018-03-04T02:59:05.749Z,73.98
2018-03-04T03:01:33.305Z,73.98
2018-03-04T03:04:00.851Z,74.00
2018-03-04T03:06:28.445Z,73.98
2018-03-04T03:08:55.975Z,74.31
2018-03-04T03:11:23.541Z,74.83
2018-03-04T03:13:51.096Z,74.70
2018-03-04T03:16:18.672Z,74.92
2018-03-04T03:18:46.225Z,75.08
2018-03-04T03:21:13.729Z,75.17
2018-03-04T03:23:41.278Z,75.23
2018-03-04T03:26:08.792Z,75.46
2018-03-04T03:28:36.353Z,75.56
2018-03-04T03:31:03.891Z,75.92
2018-03-04T03:33:31.480Z,76.00
2018-03-04T03:35:59.041Z,76.05
2018-03-04T03:38:26.669Z,76.18
2018-03-04T03:40:54.185Z,76.23
2018-03-04T03:43:21.680Z,76.62
2018-03-04T03:45:49.582Z,76.68
2018-03-04T03:48:17.108Z,76.71
2018-03-04T03:50:44.626Z,76.97
2018-03-04T03:53:12.152Z,76.92
2018-03-04T03:55:39.653Z,77.09
2018-03-04T03:58:07.156Z,77.21
2018-03-04T04:00:34.670Z,77.51
2018-03-04T04:03:02.222Z,77.62
2018-03-04T04:05:29.737Z,77.87
2018-03-04T04:07:57.256Z,77.98
2018-03-04T04:10:24.834Z,77.90
2018-03-04T04:12:52.369Z,77.97
2018-03-04T04:15:19.917Z,78.00
2018-03-04T04:17:47.421Z,78.25
2018-03-04T04:20:14.968Z,78.41
2018-03-04T04:22:43.229Z,78.51
2018-03-04T04:25:10.744Z,78.75
2018-03-04T04:27:38.324Z,78.73
2018-03-04T04:30:05.953Z,78.86
2018-03-04T04:32:33.514Z,78.96
2018-03-04T04:35:01.019Z,79.06
2018-03-04T04:37:28.542Z,79.37
2018-03-04T04:39:56.105Z,79.38
2018-03-04T04:42:23.672Z,79.35
2018-03-04T04:44:51.175Z,79.32
2018-03-04T04:47:18.746Z,79.60
2018-03-04T04:49:46.262Z,79.68
2018-03-04T04:52:13.892Z,79.33
2018-03-04T04:54:41.473Z,79.33
2018-03-04T04:57:08.963Z,78.96
2018-03-04T04:59:36.500Z,78.84
2018-03-04T05:02:04.003Z,78.52
2018-03-04T05:04:31.481Z,78.40
2018-03-04T05:06:58.988Z,78.26
2018-03-04T05:09:26.500Z,78.16
2018-03-04T05:14:52.019Z,77.86
2018-03-04T05:17:19.550Z,78.31
2018-03-04T05:19:47.067Z,77.98
2018-03-04T05:22:14.715Z,78.17
2018-03-04T05:24:42.276Z,77.88
2018-03-04T05:27:09.834Z,77.69
2018-03-04T05:29:37.401Z,78.02
2018-03-04T05:32:05.004Z,77.79
2018-03-04T05:34:32.559Z,77.31
2018-03-04T05:37:00.089Z,77.14
2018-03-04T05:39:27.578Z,76.94
2018-03-04T05:41:55.125Z,76.64
2018-03-04T05:44:22.633Z,76.46
2018-03-04T05:46:50.208Z,76.32
2018-03-04T05:49:17.826Z,76.24
2018-03-04T05:51:45.369Z,75.87
2018-03-04T05:54:12.885Z,76.09
2018-03-04T05:56:40.390Z,75.85
2018-03-04T05:59:07.942Z,75.62
2018-03-04T06:01:35.487Z,75.70
2018-03-04T06:04:03.026Z,75.38
2018-03-04T06:06:30.625Z,74.87
2018-03-04T06:08:58.231Z,74.52
2018-03-04T06:11:25.765Z,74.18
2018-03-04T06:13:53.240Z,74.02
2018-03-04T06:16:20.747Z,73.35
2018-03-04T06:18:48.299Z,73.44
2018-03-04T06:21:15.850Z,72.83
2018-03-04T06:23:43.390Z,72.56
2018-03-04T06:26:10.986Z,72.61
2018-03-04T06:28:39.580Z,72.62
2018-03-04T06:31:07.084Z,72.06
2018-03-04T06:33:34.671Z,71.96
2018-03-04T06:36:02.185Z,71.94
2018-03-04T06:38:29.697Z,71.65
2018-03-04T06:40:57.216Z,71.40
2018-03-04T06:43:25.685Z,70.75
2018-03-04T06:45:53.210Z,70.74
2018-03-04T06:48:20.741Z,70.56
2018-03-04T06:50:48.303Z,70.10
2018-03-04T06:53:15.817Z,69.76
2018-03-04T06:55:43.403Z,69.88
2018-03-04T06:58:10.923Z,69.26
2018-03-04T07:00:38.485Z,69.33
2018-03-04T07:03:06.040Z,69.16
2018-03-04T07:05:33.632Z,68.85
2018-03-04T07:08:01.366Z,68.77
2018-03-04T07:10:28.899Z,68.69
2018-03-04T07:12:56.374Z,68.63
2018-03-04T07:15:23.942Z,68.78
2018-03-04T07:17:51.493Z,68.37
2018-03-04T07:20:19.000Z,68.50
2018-03-04T07:22:46.526Z,67.82
2018-03-04T07:25:14.056Z,67.60
2018-03-04T07:27:41.559Z,66.79
2018-03-04T07:30:11.938Z,66.87
2018-03-04T07:32:39.495Z,66.89
2018-03-04T07:35:06.990Z,66.37
2018-03-04T07:37:34.503Z,67.32
2018-03-04T07:40:02.065Z,66.38
2018-03-04T07:42:29.596Z,65.23
2018-03-04T07:44:57.235Z,64.27
2018-03-04T07:47:24.791Z,64.22
2018-03-04T07:49:52.436Z,63.39
2018-03-04T07:52:20.061Z,63.14
2018-03-04T07:54:47.576Z,62.94
2018-03-04T07:57:15.169Z,62.58
2018-03-04T07:59:42.778Z,62.50
2018-03-04T08:02:12.200Z,61.36
2018-03-04T08:04:39.714Z,60.66
2018-03-04T08:07:07.277Z,60.69
2018-03-04T08:09:35.219Z,61.91
2018-03-04T08:12:02.830Z,60.98
2018-03-04T08:14:30.402Z,60.20
2018-03-04T08:16:58.063Z,60.03
2018-03-04T08:19:27.436Z,60.15
2018-03-04T08:21:54.994Z,60.22
2018-03-04T08:24:34.774Z,60.33
2018-03-04T08:27:14.005Z,60.04
2018-03-04T08:29:41.594Z,59.77
2018-03-04T08:32:09.466Z,60.16
2018-03-04T08:34:38.380Z,60.28
2018-03-04T08:37:06.728Z,60.67
2018-03-04T08:39:34.491Z,61.10
2018-03-04T08:42:02.208Z,61.38
2018-03-04T08:44:29.858Z,61.86
2018-03-04T08:46:57.448Z,62.47
2018-03-04T08:49:25.164Z,62.72
2018-03-04T08:51:53.507Z,63.43
2018-03-04T08:54:24.104Z,63.46
2018-03-04T08:56:52.003Z,63.63
2018-03-04T08:59:19.671Z,63.46
2018-03-04T09:01:47.285Z,63.63
2018-03-04T09:04:15.600Z,63.48
2018-03-04T09:06:43.268Z,63.06
2018-03-04T09:09:11.009Z,62.81
2018-03-04T09:11:38.751Z,62.10
2018-03-04T09:14:06.385Z,61.80
2018-03-04T09:16:33.929Z,62.50
2018-03-04T09:19:03.017Z,62.72
2018-03-04T09:21:34.774Z,63.22
2018-03-04T09:24:02.413Z,62.42
2018-03-04T09:26:30.838Z,62.40
2018-03-04T09:28:58.436Z,63.16
2018-03-04T09:31:26.127Z,62.45
2018-03-04T09:34:01.069Z,62.56
2018-03-04T09:36:28.976Z,61.54
2018-03-04T09:38:56.643Z,61.98
2018-03-04T09:41:24.204Z,60.90
2018-03-04T09:43:51.847Z,60.38
2018-03-04T09:46:19.498Z,61.27
2018-03-04T09:48:47.019Z,60.09
2018-03-04T09:51:14.559Z,59.92
2018-03-04T09:53:42.982Z,60.35
2018-03-04T09:56:10.594Z,60.29
2018-03-04T09:58:38.282Z,60.07
2018-03-04T10:01:05.812Z,59.94
2018-03-04T10:03:33.433Z,59.92
2018-03-04T10:06:00.929Z,59.98
2018-03-04T10:08:28.495Z,60.64
2018-03-04T10:10:56.034Z,60.14
2018-03-04T10:13:23.518Z,60.21
2018-03-04T10:15:51.689Z,59.69
2018-03-04T10:18:19.232Z,59.75
2018-03-04T10:20:47.301Z,59.66
2018-03-04T10:23:16.056Z,58.66
2018-03-04T10:25:43.568Z,59.10
2018-03-04T10:28:11.252Z,59.36
2018-03-04T10:30:38.964Z,58.44
2018-03-04T10:33:06.623Z,58.92
2018-03-04T10:35:34.409Z,58.77
2018-03-04T10:38:02.009Z,59.55
2018-03-04T10:40:29.712Z,60.23
2018-03-04T10:42:58.240Z,60.10
2018-03-04T10:45:26.318Z,60.62
2018-03-04T10:47:54.054Z,60.98
2018-03-04T10:50:21.606Z,61.08
2018-03-04T10:52:49.094Z,60.63
2018-03-04T10:55:16.603Z,60.19
2018-03-04T10:57:44.111Z,59.89
2018-03-04T11:00:11.732Z,59.31
2018-03-04T11:02:42.356Z,60.35
2018-03-04T11:05:09.970Z,60.21
2018-03-04T11:07:37.626Z,60.14
2018-03-04T11:10:05.225Z,60.34
2018-03-04T11:12:33.112Z,60.26
2018-03-04T11:15:00.667Z,59.79
2018-03-04T11:17:28.422Z,59.32
2018-03-04T11:19:55.938Z,59.21
2018-03-04T11:22:23.461Z,59.63
2018-03-04T11:24:50.942Z,59.58
2018-03-04T11:27:18.572Z,59.78
2018-03-04T11:29:46.119Z,59.58
2018-03-04T11:32:14.018Z,58.96
2018-03-04T11:34:41.774Z,58.42
2018-03-04T11:37:09.672Z,57.91
2018-03-04T11:39:37.405Z,58.44
2018-03-04T11:42:07.642Z,58.84
2018-03-04T11:44:35.642Z,58.93
2018-03-04T11:47:04.082Z,58.90
2018-03-04T11:49:31.851Z,59.33
2018-03-04T11:51:59.598Z,59.63
2018-03-04T11:54:27.966Z,59.53
2018-03-04T11:56:55.748Z,60.20
2018-03-04T11:59:23.502Z,59.93
2018-03-04T12:01:51.291Z,60.34
2018-03-04T12:04:19.107Z,59.94
2018-03-04T12:06:46.811Z,59.90
2018-03-04T12:09:15.533Z,60.23
2018-03-04T12:11:43.375Z,60.79
2018-03-04T12:14:11.228Z,60.78
2018-03-04T12:16:38.997Z,60.85
2018-03-04T12:19:07.567Z,60.71
2018-03-04T12:21:35.344Z,60.75
2018-03-04T12:24:03.114Z,60.91
2018-03-04T12:26:30.995Z,61.54
2018-03-04T12:28:59.711Z,61.61
2018-03-04T12:31:27.590Z,61.63
2018-03-04T12:33:55.341Z,61.56
2018-03-04T12:36:23.182Z,61.01
2018-03-04T12:38:50.878Z,60.88
2018-03-04T12:41:18.709Z,61.03
2018-03-04T12:43:46.423Z,61.12
2018-03-04T12:46:14.138Z,61.13
2018-03-04T12:48:41.971Z,61.74
2018-03-04T12:51:09.862Z,61.97
2018-03-04T12:53:37.666Z,61.83
2018-03-04T12:56:05.483Z,62.22
2018-03-04T12:58:33.193Z,61.90
2018-03-04T13:01:00.800Z,62.26
2018-03-04T13:03:28.628Z,62.17
2018-03-04T13:05:56.451Z,61.89
2018-03-04T13:08:24.200Z,62.24
2018-03-04T13:10:52.022Z,63.06
2018-03-04T13:13:19.625Z,63.08
2018-03-04T13:15:47.442Z,63.14
2018-03-04T13:18:15.180Z,63.10
2018-03-04T13:20:43.285Z,63.12
2018-03-04T13:23:11.196Z,63.41
2018-03-04T13:25:38.961Z,63.85
2018-03-04T13:28:06.774Z,63.48
2018-03-04T13:30:34.564Z,62.78
2018-03-04T13:33:02.264Z,62.74
2018-03-04T13:35:30.022Z,62.82
2018-03-04T13:37:58.314Z,63.45
2018-03-04T13:40:25.962Z,63.29
2018-03-04T13:42:53.936Z,63.33
2018-03-04T13:45:21.706Z,63.52
2018-03-04T13:47:49.434Z,64.42
2018-03-04T13:50:17.246Z,64.34
2018-03-04T13:52:44.958Z,64.42
2018-03-04T13:55:12.719Z,64.55
2018-03-04T13:57:40.555Z,64.76
2018-03-04T14:00:08.328Z,64.95
2018-03-04T14:02:36.147Z,64.64
2018-03-04T14:05:04.043Z,64.31
2018-03-04T14:07:31.821Z,65.02
2018-03-04T14:09:59.347Z,65.47
2018-03-04T14:12:26.888Z,66.06
2018-03-04T14:14:54.500Z,67.00
2018-03-04T14:17:22.018Z,67.01
2018-03-04T14:19:49.570Z,67.24
2018-03-04T14:22:17.079Z,67.03
2018-03-04T14:24:44.668Z,66.37
2018-03-04T14:27:12.276Z,66.16
2018-03-04T14:29:39.848Z,66.08
2018-03-04T14:32:07.373Z,65.86
2018-03-04T14:34:34.977Z,65.96
2018-03-04T14:37:02.512Z,66.16
2018-03-04T14:39:30.020Z,66.54
2018-03-04T14:41:57.585Z,66.37
2018-03-04T14:44:25.117Z,66.63
2018-03-04T14:46:52.633Z,66.48
2018-03-04T14:49:20.141Z,66.43
2018-03-04T14:51:47.725Z,66.20
2018-03-04T14:54:15.261Z,66.47
2018-03-04T14:56:42.786Z,66.64
2018-03-04T14:59:10.313Z,66.58
2018-03-04T15:01:37.902Z,66.68
2018-03-04T15:04:05.443Z,66.98
2018-03-04T15:06:33.129Z,66.98
2018-03-04T15:09:00.727Z,67.20
2018-03-04T15:11:28.399Z,67.00
2018-03-04T15:13:56.073Z,67.20
2018-03-04T15:16:23.652Z,67.46
2018-03-04T15:18:51.161Z,67.63
2018-03-04T15:21:18.755Z,67.97
2018-03-04T15:23:46.359Z,67.91
2018-03-04T15:26:13.845Z,67.95
2018-03-04T15:28:41.712Z,68.21
2018-03-04T15:31:09.336Z,68.60
2018-03-04T15:33:36.839Z,69.45
2018-03-04T15:36:04.376Z,69.64
2018-03-04T15:38:31.968Z,69.93
2018-03-04T15:40:59.496Z,70.27
2018-03-04T15:43:27.171Z,70.74
2018-03-04T15:45:54.715Z,70.58
2018-03-04T15:48:22.198Z,70.84
2018-03-04T15:50:49.809Z,71.11
2018-03-04T15:53:17.295Z,71.18
2018-03-04T15:55:44.868Z,71.24
2018-03-04T15:58:12.355Z,71.34
2018-03-04T16:00:39.881Z,71.59
2018-03-04T16:03:07.516Z,71.66
2018-03-04T16:05:35.204Z,71.96
2018-03-04T16:08:02.822Z,72.10
2018-03-04T16:10:30.502Z,72.34
2018-03-04T16:12:58.027Z,72.65
2018-03-04T16:15:25.506Z,72.65
2018-03-04T16:17:53.010Z,72.99
2018-03-04T16:20:20.577Z,73.27
2018-03-04T16:22:48.095Z,73.17
2018-03-04T16:25:15.594Z,73.65
2018-03-04T16:27:43.211Z,73.57
2018-03-04T16:30:10.717Z,73.96
2018-03-04T16:32:39.488Z,74.34
2018-03-04T16:35:07.782Z,74.48
2018-03-04T16:37:37.231Z,74.37
2018-03-04T16:40:06.605Z,74.48
2018-03-04T16:42:34.144Z,74.51
2018-03-04T16:45:01.693Z,74.68
2018-03-04T16:47:29.782Z,74.74
2018-03-04T16:49:57.374Z,75.07
2018-03-04T16:52:24.944Z,75.42
2018-03-04T16:54:52.619Z,75.82
2018-03-04T16:57:22.480Z,75.79
2018-03-04T16:59:50.061Z,75.86
2018-03-04T17:02:17.574Z,75.75
2018-03-04T17:04:45.392Z,75.55
2018-03-04T17:07:12.888Z,75.35
2018-03-04T17:09:40.984Z,75.22
2018-03-04T17:12:09.637Z,75.53
2018-03-04T17:14:39.083Z,75.06
2018-03-04T17:17:06.690Z,74.93
2018-03-04T17:19:35.094Z,74.77
2018-03-04T17:22:02.782Z,74.84
2018-03-04T17:24:30.445Z,74.69
2018-03-04T17:26:58.276Z,74.79
2018-03-04T17:29:26.857Z,74.64
2018-03-04T17:31:54.385Z,74.59
2018-03-04T17:34:21.930Z,74.57
2018-03-04T17:36:50.475Z,74.39
2018-03-04T17:39:19.248Z,74.80
2018-03-04T17:41:46.853Z,74.63
2018-03-04T17:44:14.936Z,74.17
2018-03-04T17:46:42.427Z,74.00
2018-03-04T17:49:09.969Z,74.10
2018-03-04T17:51:37.506Z,73.77
2018-03-04T17:54:05.035Z,72.69
2018-03-04T17:56:32.590Z,71.79
2018-03-04T17:59:00.883Z,71.03
2018-03-04T18:01:28.629Z,71.04
2018-03-04T18:03:56.227Z,70.37
2018-03-04T18:06:23.848Z,69.39
2018-03-04T18:08:51.386Z,68.57
2018-03-04T18:11:18.919Z,68.67
2018-03-04T18:13:46.511Z,67.90
2018-03-04T18:16:13.988Z,67.93
2018-03-04T18:18:41.706Z,67.28
2018-03-04T18:21:09.388Z,67.25
2018-03-04T18:23:37.200Z,67.02
2018-03-04T18:26:06.009Z,67.17
2018-03-04T18:28:34.479Z,66.44
2018-03-04T18:31:05.878Z,66.30
2018-03-04T18:33:33.750Z,65.58
2018-03-04T18:36:02.250Z,65.49
2018-03-04T18:38:31.486Z,65.56
2018-03-04T18:41:00.625Z,65.42
2018-03-04T18:43:28.336Z,64.56
2018-03-04T18:45:56.132Z,64.77
2018-03-04T18:48:23.843Z,64.24
2018-03-04T18:50:51.921Z,64.44
2018-03-04T18:53:20.104Z,63.90
2018-03-04T18:55:48.838Z,63.73
2018-03-04T18:58:18.203Z,63.71
2018-03-04T19:00:46.351Z,64.05
2018-03-04T19:03:15.254Z,63.06
2018-03-04T19:05:44.395Z,63.10
2018-03-04T19:08:12.051Z,63.47
2018-03-04T19:10:39.726Z,63.42
2018-03-04T19:13:07.615Z,62.95
2018-03-04T19:15:35.764Z,63.12
2018-03-04T19:18:04.881Z,63.34
2018-03-04T19:20:32.948Z,63.10
2018-03-04T19:23:01.477Z,62.71
2018-03-04T19:25:29.333Z,62.52
2018-03-04T19:27:57.098Z,62.56
2018-03-04T19:30:24.859Z,63.00
2018-03-04T19:32:52.588Z,63.02
2018-03-04T19:35:20.343Z,62.94
2018-03-04T19:37:48.136Z,63.31
2018-03-04T19:40:15.838Z,62.89
2018-03-04T19:42:43.381Z,63.19
2018-03-04T19:45:10.869Z,62.92
2018-03-04T19:47:38.494Z,63.11
2018-03-04T19:50:06.320Z,63.36
2018-03-04T19:52:33.819Z,63.04
2018-03-04T19:55:01.294Z,62.95
2018-03-04T19:57:28.817Z,63.00
2018-03-04T19:59:56.394Z,63.04
2018-03-04T20:02:23.957Z,62.88
2018-03-04T20:04:51.449Z,62.94
2018-03-04T20:07:19.880Z,62.88
2018-03-04T20:09:47.418Z,63.29
2018-03-04T20:12:15.005Z,62.64
2018-03-04T20:14:42.533Z,62.61
2018-03-04T20:17:10.044Z,62.45
2018-03-04T20:19:37.554Z,62.65
2018-03-04T20:22:05.139Z,62.14
2018-03-04T20:24:32.757Z,62.40
2018-03-04T20:27:00.295Z,62.30
2018-03-04T20:29:27.849Z,62.17
2018-03-04T20:31:55.404Z,62.39
2018-03-04T20:34:22.931Z,62.42
2018-03-04T20:36:50.425Z,62.30
2018-03-04T20:39:18.003Z,62.14
2018-03-04T20:41:45.552Z,62.01
2018-03-04T20:44:13.068Z,62.10
2018-03-04T20:46:40.733Z,62.07
2018-03-04T20:49:08.327Z,61.96
2018-03-04T20:51:35.889Z,62.19
2018-03-04T20:54:03.452Z,62.70
2018-03-04T20:56:31.020Z,62.15
2018-03-04T20:58:58.638Z,61.79
2018-03-04T21:01:26.254Z,61.97
2018-03-04T21:03:53.935Z,61.90
2018-03-04T21:06:21.471Z,62.09
2018-03-04T21:08:49.051Z,62.21
2018-03-04T21:11:16.680Z,62.25
2018-03-04T21:13:44.285Z,62.59
2018-03-04T21:16:12.683Z,62.92
2018-03-04T21:18:40.188Z,62.92
2018-03-04T21:21:07.705Z,63.00
2018-03-04T21:23:35.246Z,63.26
2018-03-04T21:26:02.871Z,63.16
2018-03-04T21:28:30.393Z,63.23
2018-03-04T21:30:57.927Z,63.12
2018-03-04T21:33:25.438Z,63.24
2018-03-04T21:35:52.979Z,63.57
2018-03-04T21:38:20.480Z,63.59
2018-03-04T21:40:48.028Z,63.93
2018-03-04T21:43:15.572Z,63.88
2018-03-04T21:45:43.123Z,64.40
2018-03-04T21:48:10.610Z,64.33
2018-03-04T21:50:38.127Z,64.82
2018-03-04T21:53:05.616Z,64.48
2018-03-04T21:55:33.145Z,64.47
2018-03-04T21:58:00.719Z,64.63
2018-03-04T22:00:28.216Z,64.66
2018-03-04T22:02:55.705Z,64.52
2018-03-04T22:05:23.213Z,64.86
2018-03-04T22:07:50.830Z,65.55
2018-03-04T22:10:18.338Z,66.00
2018-03-04T22:12:45.859Z,66.29
2018-03-04T22:15:13.348Z,66.69
2018-03-04T22:17:40.916Z,66.56
2018-03-04T22:20:08.502Z,66.60
2018-03-04T22:22:36.064Z,66.95
2018-03-04T22:25:03.542Z,67.16
2018-03-04T22:27:31.033Z,67.29
2018-03-04T22:29:58.535Z,67.45
2018-03-04T22:32:26.062Z,67.37
2018-03-04T22:34:53.586Z,67.39
2018-03-04T22:37:21.087Z,67.60
2018-03-04T22:39:48.616Z,67.91
2018-03-04T22:42:16.094Z,67.99
2018-03-04T22:44:43.770Z,67.78
2018-03-04T22:47:11.321Z,68.11
2018-03-04T22:49:38.799Z,68.13
2018-03-04T22:52:06.364Z,67.90
2018-03-04T22:54:33.839Z,68.24
2018-03-04T22:57:01.405Z,68.38
2018-03-04T22:59:28.909Z,69.19
2018-03-04T23:01:56.453Z,68.92
2018-03-04T23:04:23.959Z,69.13
2018-03-04T23:06:51.496Z,69.53
2018-03-04T23:09:19.028Z,69.83
2018-03-04T23:11:46.542Z,69.84
2018-03-04T23:14:14.043Z,70.46
2018-03-04T23:16:41.597Z,70.40
2018-03-04T23:19:09.088Z,71.25
2018-03-04T23:21:36.645Z,71.05
2018-03-04T23:24:04.147Z,71.45
2018-03-04T23:26:31.689Z,71.42
2018-03-04T23:28:59.196Z,71.80
2018-03-04T23:31:26.702Z,72.34
2018-03-04T23:33:54.221Z,73.02
2018-03-04T23:36:21.704Z,74.34
2018-03-04T23:38:49.207Z,76.29
2018-03-04T23:41:16.755Z,77.14
2018-03-04T23:43:44.275Z,77.42
2018-03-04T23:46:11.785Z,77.91
2018-03-04T23:48:39.362Z,80.48
2018-03-04T23:51:06.863Z,79.14
2018-03-04T23:53:34.427Z,80.32
2018-03-04T23:56:01.989Z,81.94
2018-03-04T23:58:29.545Z,80.20
